createdAt,value
2023-05-19T00:00:37.569Z,101740.28
2023-05-19T00:03:04.739Z,101695.63
2023-05-19T00:05:32.154Z,101744.88
2023-05-19T00:07:59.905Z,101743.25
2023-05-19T00:10:27.048Z,101733.78
2023-05-19T00:12:55.325Z,101736.56
2023-05-19T00:15:22.610Z,101706.91
2023-05-19T00:17:49.581Z,101725.53
2023-05-19T00:20:16.203Z,101731.88
2023-05-19T00:22:42.803Z,101735.63
2023-05-19T00:25:10.162Z,101729.66
2023-05-19T00:27:36.843Z,101730.75
2023-05-19T00:30:05.987Z,101716.28
2023-05-19T00:32:32.676Z,101694.81
2023-05-19T00:34:59.682Z,101724.53
2023-05-19T00:37:26.361Z,101687.50
2023-05-19T00:39:52.926Z,101724.94
2023-05-19T00:42:20.833Z,101709.22
2023-05-19T00:44:47.403Z,101722.03
2023-05-19T00:47:15.418Z,101728.38
2023-05-19T00:49:42.018Z,101722.44
2023-05-19T00:52:08.770Z,101715.72
2023-05-19T00:54:35.921Z,101719.50
2023-05-19T00:57:03.318Z,101730.22
2023-05-19T00:59:30.022Z,101723.59
2023-05-19T01:01:57.381Z,101729.75
2023-05-19T01:04:25.656Z,101722.34
2023-05-19T01:06:52.340Z,101732.03
2023-05-19T01:09:19.750Z,101686.72
2023-05-19T01:11:46.352Z,101738.66
2023-05-19T01:14:13.085Z,101736.97
2023-05-19T01:16:43.284Z,101734.41
2023-05-19T01:19:20.876Z,101732.09
2023-05-19T01:22:27.184Z,101722.00
2023-05-19T01:25:18.315Z,101713.06
2023-05-19T01:28:11.986Z,101725.13
2023-05-19T01:30:42.075Z,101695.69
2023-05-19T01:33:11.514Z,101720.19
2023-05-19T01:35:40.283Z,101722.88
2023-05-19T01:38:09.449Z,101727.28
2023-05-19T01:40:37.520Z,101687.41
2023-05-19T01:43:05.051Z,101716.41
2023-05-19T01:45:33.768Z,101716.41
2023-05-19T01:48:04.321Z,101720.09
2023-05-19T01:50:32.429Z,101716.75
2023-05-19T01:53:00.514Z,101716.00
2023-05-19T01:55:27.520Z,101721.44
2023-05-19T01:58:02.918Z,101712.66
2023-05-19T02:00:42.322Z,101710.22
2023-05-19T02:03:22.498Z,101691.28
2023-05-19T02:05:55.435Z,101714.25
2023-05-19T02:08:30.086Z,101722.22
2023-05-19T02:11:02.456Z,101728.44
2023-05-19T02:13:33.634Z,101685.19
2023-05-19T02:16:05.240Z,101723.09
2023-05-19T02:18:33.807Z,101732.41
2023-05-19T02:21:00.387Z,101725.00
2023-05-19T02:23:27.223Z,101731.34
2023-05-19T02:25:53.886Z,101738.44
2023-05-19T02:28:20.549Z,101729.88
2023-05-19T02:30:47.155Z,101728.03
2023-05-19T02:33:13.913Z,101720.53
2023-05-19T02:35:43.940Z,101728.25
2023-05-19T02:38:10.537Z,101728.44
2023-05-19T02:40:37.172Z,101732.97
2023-05-19T02:43:03.858Z,101731.44
2023-05-19T02:45:30.479Z,101713.56
2023-05-19T02:47:57.512Z,101721.38
2023-05-19T02:50:25.264Z,101719.59
2023-05-19T02:52:53.533Z,101724.13
2023-05-19T02:55:20.244Z,101694.88
2023-05-19T02:57:46.888Z,101725.44
2023-05-19T03:00:14.327Z,101722.06
2023-05-19T03:02:41.381Z,101726.44
2023-05-19T03:05:09.037Z,101696.91
2023-05-19T03:07:35.972Z,101729.50
2023-05-19T03:10:04.666Z,101721.94
2023-05-19T03:12:31.394Z,101728.22
2023-05-19T03:14:58.277Z,101704.25
2023-05-19T03:17:25.245Z,101709.59
2023-05-19T03:19:51.864Z,101715.56
2023-05-19T03:22:18.491Z,101714.19
2023-05-19T03:24:45.055Z,101708.97
2023-05-19T03:27:13.324Z,101679.50
2023-05-19T03:29:39.905Z,101704.84
2023-05-19T03:32:07.141Z,101708.56
2023-05-19T03:34:33.908Z,101704.38
2023-05-19T03:37:00.949Z,101708.78
2023-05-19T03:39:27.569Z,101711.63
2023-05-19T03:41:54.276Z,101656.75
2023-05-19T03:44:22.426Z,101723.13
2023-05-19T03:46:49.139Z,101720.50
2023-05-19T03:49:18.840Z,101721.41
2023-05-19T03:51:57.494Z,101731.16
2023-05-19T03:54:31.813Z,101728.47
2023-05-19T03:56:58.694Z,101676.59
2023-05-19T03:59:26.608Z,101730.88
2023-05-19T04:01:53.288Z,101728.34
2023-05-19T04:04:20.027Z,101723.16
2023-05-19T04:06:46.691Z,101722.31
2023-05-19T04:09:16.029Z,101728.38
2023-05-19T04:11:43.184Z,101718.16
2023-05-19T04:14:09.813Z,101731.16
2023-05-19T04:16:38.192Z,101735.31
2023-05-19T04:19:04.897Z,101710.31
2023-05-19T04:21:31.656Z,101731.16
2023-05-19T04:23:58.277Z,101728.91
2023-05-19T04:26:26.032Z,101727.47
2023-05-19T04:28:52.815Z,101717.34
2023-05-19T04:31:19.672Z,101722.03
2023-05-19T04:33:47.769Z,101721.47
2023-05-19T04:36:14.826Z,101715.91
2023-05-19T04:38:43.213Z,101713.56
2023-05-19T04:41:11.543Z,101684.13
2023-05-19T04:43:39.771Z,101718.84
2023-05-19T04:46:06.621Z,101717.59
2023-05-19T04:48:33.610Z,101716.66
2023-05-19T04:51:01.623Z,101720.22
2023-05-19T04:53:28.564Z,101726.38
2023-05-19T04:55:55.758Z,101698.69
2023-05-19T04:58:22.795Z,101725.13
2023-05-19T05:00:49.447Z,101721.88
2023-05-19T05:03:16.391Z,101727.03
2023-05-19T05:05:43.224Z,101723.56
2023-05-19T05:08:11.911Z,101729.59
2023-05-19T05:10:42.501Z,101724.25
2023-05-19T05:13:11.194Z,101721.47
2023-05-19T05:15:39.287Z,101724.88
2023-05-19T05:18:07.515Z,101724.69
2023-05-19T05:20:35.431Z,101724.59
2023-05-19T05:23:02.699Z,101672.78
2023-05-19T05:25:33.421Z,101727.59
2023-05-19T05:28:00.301Z,101728.19
2023-05-19T05:30:27.478Z,101729.78
2023-05-19T05:32:54.467Z,101721.69
2023-05-19T05:35:30.333Z,101723.00
2023-05-19T05:37:57.232Z,101725.22
2023-05-19T05:40:24.646Z,101722.38
2023-05-19T05:42:53.543Z,101723.81
2023-05-19T05:45:22.101Z,101724.13
2023-05-19T05:47:53.023Z,101717.31
2023-05-19T05:50:20.350Z,101725.56
2023-05-19T05:52:48.251Z,101666.06
2023-05-19T05:55:17.960Z,101710.09
2023-05-19T05:57:44.858Z,101710.38
2023-05-19T06:00:13.709Z,101700.38
2023-05-19T06:02:43.027Z,101701.81
2023-05-19T06:05:10.156Z,101690.56
2023-05-19T06:07:36.811Z,101704.84
2023-05-19T06:10:04.596Z,101707.13
2023-05-19T06:12:31.624Z,101704.78
2023-05-19T06:14:58.558Z,101704.25
2023-05-19T06:17:41.434Z,101706.06
2023-05-19T06:20:09.112Z,101672.88
2023-05-19T06:22:36.094Z,101694.66
2023-05-19T06:25:04.320Z,101698.31
2023-05-19T06:27:32.644Z,101697.34
2023-05-19T06:30:01.467Z,101697.50
2023-05-19T06:32:31.757Z,101659.72
2023-05-19T06:35:01.683Z,101695.16
2023-05-19T06:37:28.266Z,101693.56
2023-05-19T06:39:55.724Z,101694.41
2023-05-19T06:42:22.424Z,101691.94
2023-05-19T06:44:56.548Z,101679.59
2023-05-19T06:47:23.820Z,101644.47
2023-05-19T06:49:51.841Z,101692.72
2023-05-19T06:52:20.043Z,101688.22
2023-05-19T06:54:46.681Z,101692.56
2023-05-19T06:57:13.279Z,101687.38
2023-05-19T06:59:40.049Z,101688.31
2023-05-19T07:02:07.389Z,101672.72
2023-05-19T07:04:34.750Z,101688.88
2023-05-19T07:07:01.433Z,101678.16
2023-05-19T07:09:30.287Z,101687.00
2023-05-19T07:11:57.074Z,101660.31
2023-05-19T07:14:23.677Z,101685.09
2023-05-19T07:16:51.001Z,101678.03
2023-05-19T07:19:18.067Z,101668.00
2023-05-19T07:21:44.904Z,101666.88
2023-05-19T07:24:11.501Z,101668.13
2023-05-19T07:26:40.072Z,101663.78
2023-05-19T07:29:06.718Z,101663.94
2023-05-19T07:31:33.849Z,101656.47
2023-05-19T07:34:00.480Z,101661.53
2023-05-19T07:36:27.235Z,101658.63
2023-05-19T07:38:53.807Z,101660.63
2023-05-19T07:41:20.513Z,101654.00
2023-05-19T07:43:48.503Z,101648.19
2023-05-19T07:46:15.171Z,101647.53
2023-05-19T07:48:41.788Z,101651.94
2023-05-19T07:51:08.673Z,101638.59
2023-05-19T07:53:35.370Z,101646.00
2023-05-19T07:56:02.025Z,101644.44
2023-05-19T07:58:28.788Z,101631.84
2023-05-19T08:00:58.186Z,101638.88
2023-05-19T08:03:25.415Z,101633.50
2023-05-19T08:05:52.083Z,101634.69
2023-05-19T08:08:18.739Z,101635.44
2023-05-19T08:10:45.797Z,101632.53
2023-05-19T08:13:12.652Z,101624.28
2023-05-19T08:15:39.549Z,101630.19
2023-05-19T08:18:07.573Z,101631.72
2023-05-19T08:20:34.396Z,101620.53
2023-05-19T08:23:01.197Z,101626.84
2023-05-19T08:25:27.780Z,101618.31
2023-05-19T08:27:54.398Z,101625.88
2023-05-19T08:30:21.342Z,101618.41
2023-05-19T08:32:47.976Z,101611.22
2023-05-19T08:35:15.916Z,101610.31
2023-05-19T08:37:42.497Z,101615.47
2023-05-19T08:40:15.776Z,101591.47
2023-05-19T08:42:42.476Z,101595.34
2023-05-19T08:45:09.859Z,101594.75
2023-05-19T08:47:36.850Z,101594.41
2023-05-19T08:50:06.015Z,101589.13
2023-05-19T08:52:42.651Z,101594.94
2023-05-19T08:55:15.468Z,101588.03
2023-05-19T08:57:42.204Z,101577.72
2023-05-19T09:00:10.398Z,101581.13
2023-05-19T09:02:46.623Z,101541.88
2023-05-19T09:05:23.082Z,101583.00
2023-05-19T09:07:51.075Z,101568.34
2023-05-19T09:10:17.909Z,101564.91
2023-05-19T09:12:46.288Z,101567.84
2023-05-19T09:15:13.952Z,101561.91
2023-05-19T09:17:40.616Z,101558.94
2023-05-19T09:20:08.213Z,101551.09
2023-05-19T09:22:34.891Z,101551.69
2023-05-19T09:25:02.859Z,101560.75
2023-05-19T09:27:31.230Z,101551.59
2023-05-19T09:30:07.357Z,101555.44
2023-05-19T09:32:35.425Z,101540.06
2023-05-19T09:35:02.853Z,101546.41
2023-05-19T09:37:30.909Z,101546.25
2023-05-19T09:39:57.646Z,101544.03
2023-05-19T09:42:26.185Z,101538.97
2023-05-19T09:44:59.294Z,101530.91
2023-05-19T09:47:26.058Z,101546.84
2023-05-19T09:49:53.847Z,101548.38
2023-05-19T09:52:20.718Z,101545.06
2023-05-19T09:54:48.586Z,101519.91
2023-05-19T09:57:15.761Z,101533.91
2023-05-19T09:59:44.575Z,101533.34
2023-05-19T10:02:16.528Z,101535.19
2023-05-19T10:04:43.994Z,101535.88
2023-05-19T10:07:12.466Z,101535.09
2023-05-19T10:09:40.921Z,101537.28
2023-05-19T10:12:08.950Z,101540.63
2023-05-19T10:14:36.529Z,101534.28
2023-05-19T10:17:05.197Z,101535.13
2023-05-19T10:19:31.959Z,101528.63
2023-05-19T10:21:58.619Z,101525.47
2023-05-19T10:24:25.237Z,101517.25
2023-05-19T10:26:57.694Z,101505.88
2023-05-19T10:29:28.151Z,101495.81
2023-05-19T10:31:58.655Z,101518.59
2023-05-19T10:34:47.714Z,101517.78
2023-05-19T10:37:24.208Z,101515.25
2023-05-19T10:39:51.255Z,101510.91
2023-05-19T10:42:29.304Z,101512.22
2023-05-19T10:45:03.251Z,101505.72
2023-05-19T10:47:30.125Z,101510.72
2023-05-19T10:50:00.555Z,101510.19
2023-05-19T10:52:27.232Z,101506.31
2023-05-19T10:54:54.150Z,101467.97
2023-05-19T10:57:26.092Z,101497.81
2023-05-19T10:59:52.771Z,101501.19
2023-05-19T11:02:39.684Z,101493.28
2023-05-19T11:05:11.779Z,101464.94
2023-05-19T11:07:41.683Z,101484.34
2023-05-19T11:10:08.923Z,101488.00
2023-05-19T11:12:45.585Z,101481.25
2023-05-19T11:15:13.809Z,101474.16
2023-05-19T11:17:41.251Z,101483.16
2023-05-19T11:20:20.230Z,101471.41
2023-05-19T11:23:01.509Z,101475.25
2023-05-19T11:25:41.337Z,101477.22
2023-05-19T11:28:08.629Z,101484.97
2023-05-19T11:30:35.321Z,101475.84
2023-05-19T11:33:02.721Z,101469.47
2023-05-19T11:35:34.662Z,101471.66
2023-05-19T11:38:03.421Z,101466.88
2023-05-19T11:40:30.683Z,101453.16
2023-05-19T11:42:57.810Z,101461.75
2023-05-19T11:45:25.035Z,101461.00
2023-05-19T11:48:01.124Z,101449.31
2023-05-19T11:50:31.061Z,101456.84
2023-05-19T11:52:59.971Z,101432.31
2023-05-19T11:55:26.911Z,101450.31
2023-05-19T11:58:04.018Z,101445.91
2023-05-19T12:00:36.100Z,101445.84
2023-05-19T12:03:02.969Z,101442.50
2023-05-19T12:05:32.469Z,101424.34
2023-05-19T12:08:01.226Z,101442.59
2023-05-19T12:10:28.985Z,101438.59
2023-05-19T12:12:56.243Z,101434.06
2023-05-19T12:15:24.016Z,101428.00
2023-05-19T12:17:51.066Z,101431.91
2023-05-19T12:20:18.956Z,101423.19
2023-05-19T12:22:47.794Z,101413.75
2023-05-19T12:25:15.437Z,101422.16
2023-05-19T12:27:43.796Z,101424.50
2023-05-19T12:30:11.373Z,101422.06
2023-05-19T12:32:38.691Z,101410.19
2023-05-19T12:35:06.363Z,101414.47
2023-05-19T12:37:33.451Z,101402.09
2023-05-19T12:40:01.968Z,101398.00
2023-05-19T12:42:29.301Z,101404.03
2023-05-19T12:44:55.836Z,101381.66
2023-05-19T12:47:22.570Z,101388.44
2023-05-19T12:49:55.196Z,101393.78
2023-05-19T12:52:21.898Z,101392.22
2023-05-19T12:54:48.611Z,101385.81
2023-05-19T12:57:17.696Z,101399.53
2023-05-19T12:59:44.879Z,101388.50
2023-05-19T13:02:11.492Z,101397.03
2023-05-19T13:04:38.149Z,101391.25
2023-05-19T13:07:04.806Z,101394.00
2023-05-19T13:09:31.370Z,101387.97
2023-05-19T13:11:59.436Z,101391.34
2023-05-19T13:14:27.559Z,101378.16
2023-05-19T13:16:54.170Z,101359.75
2023-05-19T13:21:50.288Z,101367.50
2023-05-19T13:24:17.143Z,101368.19
2023-05-19T13:26:43.741Z,101373.00
2023-05-19T13:29:10.314Z,101362.78
2023-05-19T13:31:38.342Z,101351.75
2023-05-19T13:34:05.046Z,101369.84
2023-05-19T13:36:31.717Z,101370.94
2023-05-19T13:38:58.482Z,101362.88
2023-05-19T13:41:25.194Z,101342.94
2023-05-19T13:43:52.112Z,101342.72
2023-05-19T13:46:22.177Z,101352.28
2023-05-19T13:48:54.776Z,101334.84
2023-05-19T13:51:21.368Z,101358.06
2023-05-19T13:53:48.006Z,101345.19
2023-05-19T13:56:14.564Z,101349.56
2023-05-19T13:58:41.320Z,101358.03
2023-05-19T14:01:07.916Z,101352.63
2023-05-19T14:03:34.760Z,101346.88
2023-05-19T14:06:02.992Z,101329.88
2023-05-19T14:08:29.637Z,101335.50
2023-05-19T14:10:56.341Z,101341.22
2023-05-19T14:13:31.431Z,101338.44
2023-05-19T14:15:59.651Z,101341.34
2023-05-19T14:18:26.298Z,101334.63
2023-05-19T14:20:52.876Z,101336.06
2023-05-19T14:23:20.785Z,101342.28
2023-05-19T14:25:47.486Z,101305.53
2023-05-19T14:28:14.056Z,101318.63
2023-05-19T14:30:40.670Z,101321.03
2023-05-19T14:33:07.751Z,101317.13
2023-05-19T14:35:34.388Z,101319.88
2023-05-19T14:38:00.926Z,101321.13
2023-05-19T14:40:30.259Z,101314.88
2023-05-19T14:42:56.948Z,101303.88
2023-05-19T14:45:23.541Z,101311.22
2023-05-19T14:47:50.211Z,101313.81
2023-05-19T14:50:16.780Z,101305.38
2023-05-19T14:52:43.361Z,101296.03
2023-05-19T14:55:12.658Z,101308.53
2023-05-19T14:57:40.588Z,101316.31
2023-05-19T15:00:08.186Z,101316.00
2023-05-19T15:02:34.794Z,101310.88
2023-05-19T15:05:01.693Z,101303.22
2023-05-19T15:07:28.279Z,101293.50
2023-05-19T15:09:55.084Z,101314.06
2023-05-19T15:12:21.699Z,101314.28
2023-05-19T15:14:49.884Z,101306.56
2023-05-19T15:17:16.504Z,101300.13
2023-05-19T15:19:43.126Z,101305.47
2023-05-19T15:22:09.878Z,101305.88
2023-05-19T15:24:36.499Z,101306.88
2023-05-19T15:27:03.251Z,101298.19
2023-05-19T15:29:29.794Z,101294.16
2023-05-19T15:31:57.952Z,101294.53
2023-05-19T15:34:24.569Z,101290.41
2023-05-19T15:36:51.133Z,101295.25
2023-05-19T15:39:17.733Z,101293.03
2023-05-19T15:41:44.329Z,101293.50
2023-05-19T15:44:11.308Z,101283.94
2023-05-19T15:46:37.995Z,101290.75
2023-05-19T15:49:05.922Z,101292.00
2023-05-19T15:51:32.646Z,101287.38
2023-05-19T15:53:59.255Z,101287.94
2023-05-19T15:56:25.834Z,101284.78
2023-05-19T15:58:52.406Z,101253.34
2023-05-19T16:01:19.169Z,101283.66
2023-05-19T16:03:46.009Z,101266.78
2023-05-19T16:06:14.377Z,101280.91
2023-05-19T16:08:40.973Z,101271.34
2023-05-19T16:11:07.516Z,101272.16
2023-05-19T16:13:34.162Z,101270.31
2023-05-19T16:16:00.930Z,101267.19
2023-05-19T16:18:27.805Z,101245.81
2023-05-19T16:20:54.502Z,101266.75
2023-05-19T16:23:22.454Z,101270.94
2023-05-19T16:25:48.990Z,101266.78
2023-05-19T16:28:15.530Z,101265.06
2023-05-19T16:30:42.608Z,101264.63
2023-05-19T16:33:09.239Z,101270.56
2023-05-19T16:35:35.886Z,101257.81
2023-05-19T16:38:02.783Z,101266.91
2023-05-19T16:40:31.040Z,101261.88
2023-05-19T16:42:57.789Z,101270.72
2023-05-19T16:45:24.389Z,101261.34
2023-05-19T16:47:51.008Z,101268.81
2023-05-19T16:50:17.684Z,101262.94
2023-05-19T16:52:44.274Z,101255.22
2023-05-19T16:55:10.880Z,101261.75
2023-05-19T16:57:38.837Z,101256.91
2023-05-19T17:00:06.711Z,101261.59
2023-05-19T17:02:33.435Z,101231.28
2023-05-19T17:05:00.039Z,101251.25
2023-05-19T17:07:27.717Z,101259.28
2023-05-19T17:09:55.999Z,101249.19
2023-05-19T17:12:22.772Z,101260.84
2023-05-19T17:14:50.872Z,101246.75
2023-05-19T17:17:17.827Z,101237.22
2023-05-19T17:19:44.454Z,101260.78
2023-05-19T17:22:12.338Z,101261.38
2023-05-19T17:24:38.976Z,101257.19
2023-05-19T17:27:05.617Z,101262.75
2023-05-19T17:29:32.492Z,101241.19
2023-05-19T17:32:01.556Z,101249.78
2023-05-19T17:34:28.178Z,101248.94
2023-05-19T17:36:55.070Z,101235.28
2023-05-19T17:39:21.791Z,101251.97
2023-05-19T17:41:48.359Z,101264.63
2023-05-19T17:44:15.108Z,101257.19
2023-05-19T17:46:41.963Z,101245.69
2023-05-19T17:49:09.919Z,101273.31
2023-05-19T17:51:37.597Z,101271.75
2023-05-19T17:54:05.072Z,101273.50
2023-05-19T17:56:33.918Z,101273.34
2023-05-19T17:59:00.882Z,101242.50
2023-05-19T18:01:27.953Z,101279.00
2023-05-19T18:03:55.793Z,101282.50
2023-05-19T18:06:25.764Z,101279.25
2023-05-19T18:08:55.206Z,101269.16
2023-05-19T18:11:22.383Z,101270.44
2023-05-19T18:13:49.300Z,101290.53
2023-05-19T18:16:16.427Z,101270.06
2023-05-19T18:18:45.799Z,101277.31
2023-05-19T18:21:12.418Z,101287.69
2023-05-19T18:23:40.515Z,101289.59
2023-05-19T18:26:07.192Z,101266.50
2023-05-19T18:28:33.853Z,101304.59
2023-05-19T18:31:00.685Z,101299.28
2023-05-19T18:33:28.573Z,101287.41
2023-05-19T18:35:57.306Z,101298.75
2023-05-19T18:38:23.899Z,101307.47
2023-05-19T18:40:52.400Z,101291.84
2023-05-19T18:43:19.417Z,101262.50
2023-05-19T18:45:47.008Z,101313.81
2023-05-19T18:48:15.932Z,101296.75
2023-05-19T18:50:42.676Z,101312.19
2023-05-19T18:53:09.249Z,101277.28
2023-05-19T18:55:39.989Z,101284.38
2023-05-19T18:58:08.359Z,101285.56
2023-05-19T19:00:38.059Z,101272.56
2023-05-19T19:03:05.051Z,101315.88
2023-05-19T19:05:31.667Z,101317.38
2023-05-19T19:07:59.366Z,101311.41
2023-05-19T19:10:26.234Z,101312.28
2023-05-19T19:12:54.319Z,101327.47
2023-05-19T19:15:23.371Z,101343.69
2023-05-19T19:17:53.464Z,101341.16
2023-05-19T19:20:20.118Z,101341.66
2023-05-19T19:22:46.969Z,101342.97
2023-05-19T19:25:13.827Z,101336.09
2023-05-19T19:27:40.505Z,101350.13
2023-05-19T19:30:10.175Z,101331.34
2023-05-19T19:32:38.147Z,101355.38
2023-05-19T19:35:05.502Z,101335.53
2023-05-19T19:37:32.125Z,101331.97
2023-05-19T19:40:00.932Z,101345.59
2023-05-19T19:42:27.549Z,101298.38
2023-05-19T19:44:55.044Z,101360.59
2023-05-19T19:47:22.230Z,101363.88
2023-05-19T19:49:50.416Z,101368.06
2023-05-19T19:52:17.033Z,101356.22
2023-05-19T19:54:43.630Z,101361.59
2023-05-19T19:57:10.231Z,101362.13
2023-05-19T19:59:37.153Z,101371.00
2023-05-19T20:02:04.175Z,101374.16
2023-05-19T20:04:30.870Z,101325.63
2023-05-19T20:06:59.222Z,101379.28
2023-05-19T20:09:29.226Z,101353.09
2023-05-19T20:11:55.769Z,101390.47
2023-05-19T20:14:22.583Z,101387.44
2023-05-19T20:16:50.326Z,101321.34
2023-05-19T20:19:17.112Z,101387.34
2023-05-19T20:21:43.672Z,101393.25
2023-05-19T20:24:11.722Z,101383.19
2023-05-19T20:26:38.294Z,101316.44
2023-05-19T20:29:04.821Z,101397.13
2023-05-19T20:31:31.360Z,101396.25
2023-05-19T20:34:01.824Z,101358.47
2023-05-19T20:36:28.598Z,101395.66
2023-05-19T20:38:55.404Z,101374.31
2023-05-19T20:41:23.642Z,101404.47
2023-05-19T20:43:50.491Z,101404.56
2023-05-19T20:46:17.209Z,101406.59
2023-05-19T20:48:45.054Z,101412.06
2023-05-19T20:51:11.971Z,101416.38
2023-05-19T20:53:38.540Z,101403.38
2023-05-19T20:56:05.629Z,101430.56
2023-05-19T20:58:33.591Z,101426.91
2023-05-19T21:01:00.241Z,101431.25
2023-05-19T21:03:27.152Z,101427.47
2023-05-19T21:05:54.554Z,101429.94
2023-05-19T21:08:21.390Z,101433.22
2023-05-19T21:10:49.578Z,101410.41
2023-05-19T21:13:16.401Z,101435.44
2023-05-19T21:15:45.561Z,101421.13
2023-05-19T21:18:12.673Z,101416.69
2023-05-19T21:20:39.817Z,101450.09
2023-05-19T21:23:07.701Z,101443.16
2023-05-19T21:25:34.631Z,101431.03
2023-05-19T21:28:01.490Z,101413.44
2023-05-19T21:30:28.359Z,101414.41
2023-05-19T21:32:56.408Z,101427.03
2023-05-19T21:35:23.073Z,101446.78
2023-05-19T21:37:49.932Z,101384.72
2023-05-19T21:40:16.610Z,101439.78
2023-05-19T21:42:43.316Z,101432.44
2023-05-19T21:45:11.136Z,101440.50
2023-05-19T21:47:37.811Z,101439.06
2023-05-19T21:50:07.886Z,101431.25
2023-05-19T21:52:34.447Z,101447.81
2023-05-19T21:55:01.029Z,101431.09
2023-05-19T21:57:27.576Z,101449.13
2023-05-19T21:59:54.091Z,101438.81
2023-05-19T22:02:20.756Z,101442.88
2023-05-19T22:04:47.408Z,101445.88
2023-05-19T22:07:15.392Z,101444.56
2023-05-19T22:09:42.058Z,101443.22
2023-05-19T22:12:08.723Z,101434.28
2023-05-19T22:14:35.423Z,101393.41
2023-05-19T22:17:02.012Z,101433.81
2023-05-19T22:19:28.715Z,101443.25
2023-05-19T22:22:02.033Z,101413.91
2023-05-19T22:24:38.634Z,101370.31
2023-05-19T22:27:07.404Z,101431.78
2023-05-19T22:29:33.989Z,101433.84
2023-05-19T22:32:00.627Z,101427.41
2023-05-19T22:34:27.333Z,101426.09
2023-05-19T22:36:54.024Z,101430.97
2023-05-19T22:39:20.622Z,101431.31
2023-05-19T22:41:48.526Z,101429.13
2023-05-19T22:44:15.165Z,101429.44
2023-05-19T22:46:41.808Z,101397.13
2023-05-19T22:49:08.415Z,101424.06
2023-05-19T22:51:35.262Z,101417.50
2023-05-19T22:54:01.980Z,101428.88
2023-05-19T22:56:28.543Z,101428.28
2023-05-19T22:58:56.575Z,101424.16
2023-05-19T23:01:23.198Z,101430.50
2023-05-19T23:03:49.877Z,101430.94
2023-05-19T23:06:16.457Z,101424.53
2023-05-19T23:08:46.631Z,101418.13
2023-05-19T23:11:13.356Z,101421.91
2023-05-19T23:13:39.914Z,101417.16
2023-05-19T23:16:07.878Z,101421.41
2023-05-19T23:18:34.441Z,101420.78
2023-05-19T23:21:00.999Z,101418.56
2023-05-19T23:23:29.230Z,101422.25
2023-05-19T23:25:55.897Z,101413.72
2023-05-19T23:28:22.737Z,101422.88
2023-05-19T23:30:52.556Z,101417.94
2023-05-19T23:33:20.648Z,101395.59
2023-05-19T23:35:47.340Z,101412.47
2023-05-19T23:38:14.098Z,101411.63
2023-05-19T23:40:40.675Z,101413.50
2023-05-19T23:43:07.428Z,101396.66
2023-05-19T23:45:34.227Z,101397.50
2023-05-19T23:48:01.014Z,101410.25
2023-05-19T23:50:29.075Z,101396.75
2023-05-19T23:52:55.702Z,101409.00
2023-05-19T23:55:22.285Z,101412.78
2023-05-19T23:57:48.935Z,101414.56
